createdAt,value
2023-02-27T00:02:21.514Z,98341.28
2023-02-27T00:04:54.984Z,98361.28
2023-02-27T00:07:28.684Z,98347.31
2023-02-27T00:10:01.843Z,98361.47
2023-02-27T00:12:38.825Z,98356.44
2023-02-27T00:15:20.316Z,98369.91
2023-02-27T00:17:52.428Z,98357.19
2023-02-27T00:20:25.783Z,98359.28
2023-02-27T00:22:58.356Z,98347.25
2023-02-27T00:25:31.233Z,98347.72
2023-02-27T00:28:04.522Z,98350.31
2023-02-27T00:30:37.344Z,98348.97
2023-02-27T00:33:09.513Z,98347.63
2023-02-27T00:35:42.573Z,98340.19
2023-02-27T00:38:14.594Z,98339.59
2023-02-27T00:40:47.279Z,98341.44
2023-02-27T00:43:20.012Z,98345.63
2023-02-27T00:45:52.678Z,98344.56
2023-02-27T00:48:24.551Z,98341.69
2023-02-27T00:50:57.251Z,98346.88
2023-02-27T00:53:30.070Z,98363.13
2023-02-27T00:56:02.387Z,98342.25
2023-02-27T00:58:34.418Z,98340.63
2023-02-27T01:01:07.158Z,98342.69
2023-02-27T01:03:39.456Z,98350.00
2023-02-27T01:06:12.281Z,98347.91
2023-02-27T01:08:44.973Z,98338.69
2023-02-27T01:11:19.769Z,98339.47
2023-02-27T01:13:52.030Z,98340.81
2023-02-27T01:16:25.223Z,98327.78
2023-02-27T01:18:57.137Z,98358.75
2023-02-27T01:21:29.982Z,98334.63
2023-02-27T01:24:02.295Z,98328.84
2023-02-27T01:26:34.655Z,98342.31
2023-02-27T01:29:07.030Z,98331.38
2023-02-27T01:31:39.377Z,98342.03
2023-02-27T01:34:11.647Z,98333.19
2023-02-27T01:36:46.242Z,98336.38
2023-02-27T01:39:21.100Z,98345.56
2023-02-27T01:41:54.272Z,98328.25
2023-02-27T01:44:29.547Z,98336.13
2023-02-27T01:47:01.408Z,98346.06
2023-02-27T01:49:35.467Z,98341.50
2023-02-27T01:52:11.065Z,98337.72
2023-02-27T01:54:43.893Z,98347.75
2023-02-27T01:57:15.781Z,98339.22
2023-02-27T01:59:48.810Z,98349.00
2023-02-27T02:02:30.979Z,98341.13
2023-02-27T02:05:05.368Z,98344.59
2023-02-27T02:07:40.185Z,98324.31
2023-02-27T02:10:14.435Z,98324.53
2023-02-27T02:12:47.562Z,98333.84
2023-02-27T02:15:28.722Z,98326.38
2023-02-27T02:18:27.830Z,98319.06
2023-02-27T02:21:33.555Z,98330.03
2023-02-27T02:24:21.195Z,98313.13
2023-02-27T02:27:37.262Z,98321.19
2023-02-27T02:30:45.482Z,98323.09
2023-02-27T02:33:57.746Z,98309.28
2023-02-27T02:36:57.408Z,98309.69
2023-02-27T02:40:14.529Z,98308.69
2023-02-27T02:43:06.918Z,98315.22
2023-02-27T02:46:08.244Z,98307.09
2023-02-27T02:49:00.255Z,98296.50
2023-02-27T02:51:48.880Z,98323.09
2023-02-27T02:54:57.568Z,98310.72
2023-02-27T02:57:58.301Z,98319.75
2023-02-27T03:00:42.781Z,98317.31
2023-02-27T03:03:25.575Z,98331.63
2023-02-27T03:06:26.747Z,98302.59
2023-02-27T03:09:08.496Z,98313.47
2023-02-27T03:11:44.589Z,98313.38
2023-02-27T03:14:33.885Z,98317.41
2023-02-27T03:17:11.176Z,98321.91
2023-02-27T03:20:04.052Z,98308.19
2023-02-27T03:22:42.249Z,98319.31
2023-02-27T03:25:15.363Z,98321.81
2023-02-27T03:28:08.415Z,98320.56
2023-02-27T03:31:10.187Z,98325.66
2023-02-27T03:33:56.448Z,98324.59
2023-02-27T03:36:46.090Z,98325.50
2023-02-27T03:39:59.677Z,98330.72
2023-02-27T03:42:49.789Z,98335.06
2023-02-27T03:45:53.879Z,98335.06
2023-02-27T03:48:27.401Z,98336.31
2023-02-27T03:51:00.561Z,98326.00
2023-02-27T03:53:39.382Z,98341.78
2023-02-27T03:56:14.486Z,98349.47
2023-02-27T03:58:47.608Z,98336.41
2023-02-27T04:01:20.045Z,98342.16
2023-02-27T04:03:59.573Z,98340.94
2023-02-27T04:07:24.230Z,98350.25
2023-02-27T04:10:05.430Z,98363.97
2023-02-27T04:13:15.925Z,98339.13
2023-02-27T04:16:17.217Z,98330.66
2023-02-27T04:19:39.023Z,98341.31
2023-02-27T04:22:29.374Z,98344.00
2023-02-27T04:25:26.671Z,98350.53
2023-02-27T04:28:25.544Z,98350.63
2023-02-27T04:31:08.849Z,98350.53
2023-02-27T04:33:54.797Z,98353.22
2023-02-27T04:36:48.361Z,98357.47
2023-02-27T04:39:35.932Z,98358.88
2023-02-27T04:42:24.415Z,98365.13
2023-02-27T04:45:01.370Z,98358.44
2023-02-27T04:47:58.286Z,98367.44
2023-02-27T04:50:40.184Z,98368.28
2023-02-27T04:53:36.579Z,98379.63
2023-02-27T04:56:14.482Z,98375.50
2023-02-27T04:59:02.550Z,98372.34
2023-02-27T05:02:05.431Z,98366.66
2023-02-27T05:04:40.568Z,98371.84
2023-02-27T05:07:20.796Z,98373.50
2023-02-27T05:09:57.741Z,98374.84
2023-02-27T05:12:48.429Z,98370.03
2023-02-27T05:16:22.442Z,98380.81
2023-02-27T05:18:55.768Z,98387.78
2023-02-27T05:21:59.796Z,98374.38
2023-02-27T05:24:50.753Z,98365.91
2023-02-27T05:27:44.464Z,98377.44
2023-02-27T05:30:35.557Z,98381.56
2023-02-27T05:33:30.931Z,98378.50
2023-02-27T05:36:08.030Z,98391.06
2023-02-27T05:39:09.201Z,98377.22
2023-02-27T05:41:47.903Z,98394.06
2023-02-27T05:44:34.828Z,98374.28
2023-02-27T05:47:12.909Z,98386.28
2023-02-27T05:49:53.679Z,98391.06
2023-02-27T05:52:27.109Z,98393.00
2023-02-27T05:55:22.754Z,98396.94
2023-02-27T05:58:06.792Z,98393.66
2023-02-27T06:00:44.088Z,98388.38
2023-02-27T06:03:16.438Z,98389.34
2023-02-27T06:05:53.505Z,98387.72
2023-02-27T06:08:27.381Z,98399.94
2023-02-27T06:10:59.891Z,98401.84
2023-02-27T06:13:31.823Z,98403.75
2023-02-27T06:16:04.555Z,98398.78
2023-02-27T06:18:37.163Z,98399.72
2023-02-27T06:21:09.596Z,98402.31
2023-02-27T06:23:41.505Z,98403.94
2023-02-27T06:26:14.577Z,98405.47
2023-02-27T06:28:46.528Z,98398.94
2023-02-27T06:31:18.811Z,98407.28
2023-02-27T06:33:50.733Z,98410.56
2023-02-27T06:36:23.326Z,98401.25
2023-02-27T06:38:55.636Z,98416.72
2023-02-27T06:41:29.329Z,98421.31
2023-02-27T06:44:01.274Z,98423.25
2023-02-27T06:46:33.829Z,98433.72
2023-02-27T06:49:05.768Z,98424.69
2023-02-27T06:51:38.165Z,98435.63
2023-02-27T06:54:10.069Z,98431.22
2023-02-27T06:56:42.482Z,98433.91
2023-02-27T06:59:14.518Z,98431.22
2023-02-27T07:01:47.394Z,98443.59
2023-02-27T07:04:19.815Z,98457.81
2023-02-27T07:07:33.978Z,98458.34
2023-02-27T07:09:46.108Z,98448.34
2023-02-27T07:12:18.766Z,98450.91
2023-02-27T07:14:51.067Z,98468.38
2023-02-27T07:17:24.106Z,98461.66
2023-02-27T07:19:56.083Z,98454.06
2023-02-27T07:22:29.066Z,98460.41
2023-02-27T07:25:01.064Z,98467.03
2023-02-27T07:27:33.724Z,98472.25
2023-02-27T07:30:06.540Z,98465.13
2023-02-27T07:32:39.153Z,98469.25
2023-02-27T07:35:12.023Z,98479.63
2023-02-27T07:37:45.025Z,98497.03
2023-02-27T07:40:17.358Z,98494.97
2023-02-27T07:42:52.698Z,98494.47
2023-02-27T07:45:25.022Z,98494.34
2023-02-27T07:47:57.620Z,98495.91
2023-02-27T07:50:29.942Z,98500.78
2023-02-27T07:53:02.598Z,98506.94
2023-02-27T07:55:34.582Z,98503.44
2023-02-27T07:58:07.549Z,98500.75
2023-02-27T08:00:39.564Z,98513.69
2023-02-27T08:03:12.379Z,98513.13
2023-02-27T08:05:44.348Z,98498.50
2023-02-27T08:08:16.960Z,98516.34
2023-02-27T08:10:50.127Z,98508.13
2023-02-27T08:13:35.954Z,98510.06
2023-02-27T08:16:15.350Z,98516.69
2023-02-27T08:18:48.142Z,98509.16
2023-02-27T08:21:20.092Z,98510.66
2023-02-27T08:23:53.111Z,98523.16
2023-02-27T08:26:25.328Z,98518.56
2023-02-27T08:28:58.062Z,98518.09
2023-02-27T08:31:30.532Z,98514.13
2023-02-27T08:34:10.290Z,98506.13
2023-02-27T08:36:43.068Z,98521.66
2023-02-27T08:39:15.805Z,98517.06
2023-02-27T08:41:55.262Z,98520.53
2023-02-27T08:44:27.838Z,98510.63
2023-02-27T08:46:59.786Z,98539.66
2023-02-27T08:49:32.439Z,98518.53
2023-02-27T08:52:05.554Z,98519.28
2023-02-27T08:54:40.361Z,98522.56
2023-02-27T08:57:12.420Z,98521.50
2023-02-27T08:59:45.095Z,98522.84
2023-02-27T09:02:18.325Z,98534.25
2023-02-27T09:04:51.577Z,98535.97
2023-02-27T09:07:23.522Z,98514.84
2023-02-27T09:09:55.766Z,98537.38
2023-02-27T09:12:28.203Z,98526.25
2023-02-27T09:15:00.880Z,98540.50
2023-02-27T09:17:32.920Z,98546.41
2023-02-27T09:20:09.535Z,98547.09
2023-02-27T09:22:41.903Z,98552.72
2023-02-27T09:25:14.882Z,98559.47
2023-02-27T09:27:47.052Z,98556.06
2023-02-27T09:30:19.751Z,98563.38
2023-02-27T09:32:52.161Z,98566.13
2023-02-27T09:35:25.622Z,98564.50
2023-02-27T09:37:58.462Z,98572.13
2023-02-27T09:40:38.177Z,98567.56
2023-02-27T09:43:35.216Z,98591.34
2023-02-27T09:46:11.353Z,98587.78
2023-02-27T09:48:54.140Z,98573.84
2023-02-27T09:51:28.104Z,98596.06
2023-02-27T09:54:02.258Z,98591.91
2023-02-27T09:56:42.772Z,98581.69
2023-02-27T09:59:44.088Z,98587.22
2023-02-27T10:02:55.675Z,98605.19
2023-02-27T10:05:35.630Z,98605.66
2023-02-27T10:08:27.978Z,98606.31
2023-02-27T10:11:07.811Z,98604.97
2023-02-27T10:14:10.261Z,98622.47
2023-02-27T10:16:43.368Z,98597.88
2023-02-27T10:19:23.015Z,98601.47
2023-02-27T10:21:58.410Z,98591.88
2023-02-27T10:24:41.278Z,98612.59
2023-02-27T10:27:19.579Z,98616.84
2023-02-27T10:30:01.166Z,98612.19
2023-02-27T10:32:36.347Z,98624.09
2023-02-27T10:35:24.013Z,98618.16
2023-02-27T10:38:06.441Z,98620.63
2023-02-27T10:40:41.855Z,98614.72
2023-02-27T10:43:19.401Z,98620.44
2023-02-27T10:45:53.628Z,98628.56
2023-02-27T10:48:25.592Z,98623.00
2023-02-27T10:51:23.136Z,98619.28
2023-02-27T10:54:26.868Z,98631.56
2023-02-27T10:57:02.510Z,98640.53
2023-02-27T10:59:40.780Z,98627.72
2023-02-27T11:02:15.862Z,98629.09
2023-02-27T11:04:54.294Z,98638.53
2023-02-27T11:07:39.471Z,98624.34
2023-02-27T11:10:20.348Z,98620.25
2023-02-27T11:13:02.960Z,98618.81
2023-02-27T11:15:38.606Z,98626.38
2023-02-27T11:18:30.998Z,98630.75
2023-02-27T11:21:29.117Z,98635.69
2023-02-27T11:24:07.702Z,98630.47
2023-02-27T11:26:57.621Z,98626.47
2023-02-27T11:29:29.951Z,98627.47
2023-02-27T11:32:15.164Z,98629.56
2023-02-27T11:34:50.289Z,98624.03
2023-02-27T11:37:34.524Z,98623.16
2023-02-27T11:40:09.588Z,98627.38
2023-02-27T11:43:16.698Z,98621.50
2023-02-27T11:46:05.117Z,98627.91
2023-02-27T11:49:03.562Z,98621.09
2023-02-27T11:52:04.152Z,98621.59
2023-02-27T11:54:43.995Z,98620.19
2023-02-27T11:57:38.542Z,98648.66
2023-02-27T12:00:27.632Z,98644.38
2023-02-27T12:03:07.042Z,98624.19
2023-02-27T12:05:56.652Z,98633.16
2023-02-27T12:08:46.153Z,98637.34
2023-02-27T12:11:34.789Z,98634.56
2023-02-27T12:14:15.432Z,98641.47
2023-02-27T12:16:59.726Z,98651.63
2023-02-27T12:19:43.974Z,98645.66
2023-02-27T12:22:33.015Z,98641.75
2023-02-27T12:25:23.429Z,98641.88
2023-02-27T12:28:31.003Z,98648.50
2023-02-27T12:31:35.996Z,98638.53
2023-02-27T12:34:31.059Z,98638.53
2023-02-27T12:37:13.530Z,98642.16
2023-02-27T12:39:48.013Z,98625.59
2023-02-27T12:42:57.269Z,98634.94
2023-02-27T12:45:50.593Z,98615.06
2023-02-27T12:48:45.944Z,98644.06
2023-02-27T12:51:47.630Z,98625.66
2023-02-27T12:55:02.184Z,98627.44
2023-02-27T12:58:31.687Z,98628.06
2023-02-27T13:01:14.175Z,98641.09
2023-02-27T13:03:55.294Z,98636.97
2023-02-27T13:06:37.319Z,98639.81
2023-02-27T13:09:28.198Z,98634.94
2023-02-27T13:12:39.505Z,98631.59
2023-02-27T13:15:25.900Z,98643.28
2023-02-27T13:18:40.965Z,98638.47
2023-02-27T13:21:24.986Z,98643.75
2023-02-27T13:24:24.332Z,98639.59
2023-02-27T13:27:25.365Z,98643.59
2023-02-27T13:30:30.499Z,98628.03
2023-02-27T13:33:30.681Z,98640.91
2023-02-27T13:36:24.555Z,98642.28
2023-02-27T13:38:57.701Z,98650.50
2023-02-27T13:41:35.546Z,98645.16
2023-02-27T13:44:20.850Z,98643.47
2023-02-27T13:46:53.689Z,98649.47
2023-02-27T13:49:30.183Z,98647.59
2023-02-27T13:52:02.742Z,98652.25
2023-02-27T13:54:41.376Z,98649.72
2023-02-27T13:57:21.301Z,98657.34
2023-02-27T14:00:19.873Z,98646.72
2023-02-27T14:03:26.024Z,98648.81
2023-02-27T14:06:03.764Z,98655.25
2023-02-27T14:08:50.461Z,98658.13
2023-02-27T14:11:28.936Z,98654.53
2023-02-27T14:14:05.131Z,98661.66
2023-02-27T14:16:40.106Z,98658.09
2023-02-27T14:19:15.325Z,98663.44
2023-02-27T14:22:01.455Z,98668.50
2023-02-27T14:24:49.763Z,98654.16
2023-02-27T14:27:46.968Z,98660.72
2023-02-27T14:30:36.885Z,98661.94
2023-02-27T14:33:37.755Z,98655.50
2023-02-27T14:36:28.997Z,98676.56
2023-02-27T14:39:02.302Z,98672.31
2023-02-27T14:42:26.224Z,98680.28
2023-02-27T14:44:58.916Z,98673.50
2023-02-27T14:47:37.601Z,98677.53
2023-02-27T14:50:37.653Z,98676.03
2023-02-27T14:53:25.488Z,98679.53
2023-02-27T14:55:59.852Z,98669.69
2023-02-27T14:58:31.876Z,98674.75
2023-02-27T15:01:09.525Z,98677.66
2023-02-27T15:03:52.760Z,98690.66
2023-02-27T15:06:35.426Z,98680.63
2023-02-27T15:09:08.156Z,98675.78
2023-02-27T15:11:43.150Z,98669.28
2023-02-27T15:14:24.212Z,98678.09
2023-02-27T15:16:58.367Z,98677.97
2023-02-27T15:19:31.314Z,98685.47
2023-02-27T15:22:21.350Z,98679.97
2023-02-27T15:24:59.625Z,98686.00
2023-02-27T15:27:33.743Z,98680.72
2023-02-27T15:30:07.566Z,98688.72
2023-02-27T15:32:43.569Z,98690.88
2023-02-27T15:35:28.448Z,98689.88
2023-02-27T15:38:02.820Z,98690.44
2023-02-27T15:40:36.232Z,98703.63
2023-02-27T15:43:09.970Z,98704.41
2023-02-27T15:45:42.953Z,98692.22
2023-02-27T15:48:16.921Z,98700.72
2023-02-27T15:50:57.012Z,98695.00
2023-02-27T15:53:33.976Z,98697.75
2023-02-27T15:56:12.078Z,98704.91
2023-02-27T15:58:54.445Z,98701.84
2023-02-27T16:01:32.625Z,98701.69
2023-02-27T16:04:27.212Z,98708.09
2023-02-27T16:07:10.934Z,98709.56
2023-02-27T16:09:44.069Z,98714.50
2023-02-27T16:12:33.435Z,98714.91
2023-02-27T16:15:27.051Z,98711.44
2023-02-27T16:18:08.227Z,98723.44
2023-02-27T16:20:54.693Z,98720.50
2023-02-27T16:23:32.284Z,98724.66
2023-02-27T16:26:38.333Z,98716.69
2023-02-27T16:29:21.260Z,98728.53
2023-02-27T16:31:58.322Z,98714.97
2023-02-27T16:34:45.201Z,98730.22
2023-02-27T16:37:27.990Z,98732.84
2023-02-27T16:39:59.897Z,98727.47
2023-02-27T16:42:32.598Z,98741.25
2023-02-27T16:45:05.174Z,98732.50
2023-02-27T16:47:37.849Z,98743.28
2023-02-27T16:50:22.490Z,98738.50
2023-02-27T16:52:55.576Z,98747.97
2023-02-27T16:55:27.939Z,98743.63
2023-02-27T16:58:00.517Z,98753.53
2023-02-27T17:00:34.132Z,98749.66
2023-02-27T17:03:07.675Z,98760.09
2023-02-27T17:05:39.906Z,98756.06
2023-02-27T17:08:13.146Z,98768.09
2023-02-27T17:10:45.079Z,98767.47
2023-02-27T17:13:17.821Z,98775.22
2023-02-27T17:15:49.735Z,98777.50
2023-02-27T17:18:23.005Z,98774.63
2023-02-27T17:20:57.239Z,98783.53
2023-02-27T17:23:29.829Z,98782.78
2023-02-27T17:26:01.812Z,98790.59
2023-02-27T17:28:34.449Z,98793.94
2023-02-27T17:31:15.570Z,98792.66
2023-02-27T17:33:47.453Z,98799.66
2023-02-27T17:36:21.583Z,98805.34
2023-02-27T17:39:02.804Z,98800.09
2023-02-27T17:41:35.442Z,98795.22
2023-02-27T17:44:07.396Z,98802.34
2023-02-27T17:46:40.981Z,98804.94
2023-02-27T17:49:12.858Z,98811.34
2023-02-27T17:51:45.888Z,98818.78
2023-02-27T17:54:17.796Z,98830.28
2023-02-27T17:56:50.524Z,98833.94
2023-02-27T17:59:22.417Z,98826.13
2023-02-27T18:01:55.757Z,98840.88
2023-02-27T18:04:27.854Z,98836.06
2023-02-27T18:07:00.392Z,98842.53
2023-02-27T18:09:32.877Z,98844.81
2023-02-27T18:12:05.540Z,98848.00
2023-02-27T18:14:37.569Z,98850.78
2023-02-27T18:17:12.865Z,98851.47
2023-02-27T18:19:44.845Z,98852.84
2023-02-27T18:22:17.728Z,98859.22
2023-02-27T18:24:53.969Z,98855.28
2023-02-27T18:27:28.314Z,98849.97
2023-02-27T18:30:00.490Z,98855.44
2023-02-27T18:32:33.032Z,98853.91
2023-02-27T18:35:05.549Z,98851.13
2023-02-27T18:37:38.255Z,98841.50
2023-02-27T18:40:12.529Z,98841.44
2023-02-27T18:42:48.791Z,98851.69
2023-02-27T18:45:21.086Z,98854.84
2023-02-27T18:47:54.455Z,98855.16
2023-02-27T18:50:26.467Z,98852.75
2023-02-27T18:53:00.568Z,98859.09
2023-02-27T18:55:32.496Z,98863.06
2023-02-27T18:58:06.168Z,98852.06
2023-02-27T19:00:38.209Z,98846.88
2023-02-27T19:03:10.249Z,98852.66
2023-02-27T19:05:42.324Z,98849.56
2023-02-27T19:08:14.261Z,98851.50
2023-02-27T19:10:46.999Z,98846.66
2023-02-27T19:13:18.897Z,98853.03
2023-02-27T19:15:51.605Z,98852.47
2023-02-27T19:18:23.934Z,98857.56
2023-02-27T19:20:57.489Z,98851.31
2023-02-27T19:23:29.484Z,98852.44
2023-02-27T19:26:02.452Z,98861.81
2023-02-27T19:28:34.607Z,98844.66
2023-02-27T19:31:14.179Z,98846.66
2023-02-27T19:33:46.111Z,98851.66
2023-02-27T19:36:22.715Z,98841.84
2023-02-27T19:38:56.719Z,98852.34
2023-02-27T19:41:31.329Z,98853.81
2023-02-27T19:44:05.586Z,98855.53
2023-02-27T19:46:40.920Z,98859.59
2023-02-27T19:49:13.600Z,98855.06
2023-02-27T19:51:45.513Z,98849.78
2023-02-27T19:54:18.287Z,98855.84
2023-02-27T19:56:50.657Z,98854.09
2023-02-27T19:59:24.958Z,98854.84
2023-02-27T20:01:56.929Z,98849.47
2023-02-27T20:04:29.983Z,98844.75
2023-02-27T20:07:02.368Z,98851.88
2023-02-27T20:09:35.388Z,98849.47
2023-02-27T20:12:07.513Z,98843.22
2023-02-27T20:14:40.472Z,98851.97
2023-02-27T20:17:12.673Z,98846.66
2023-02-27T20:19:45.640Z,98852.06
2023-02-27T20:22:17.559Z,98837.31
2023-02-27T20:24:49.912Z,98849.66
2023-02-27T20:27:21.896Z,98842.19
2023-02-27T20:29:58.243Z,98847.16
2023-02-27T20:32:31.001Z,98848.72
2023-02-27T20:35:03.953Z,98847.75
2023-02-27T20:37:35.870Z,98844.66
2023-02-27T20:40:09.986Z,98853.72
2023-02-27T20:42:41.896Z,98844.00
2023-02-27T20:45:14.480Z,98835.31
2023-02-27T20:47:51.739Z,98832.44
2023-02-27T20:50:24.804Z,98836.97
2023-02-27T20:52:56.774Z,98826.19
2023-02-27T20:55:29.812Z,98837.31
2023-02-27T20:58:01.778Z,98829.06
2023-02-27T21:00:34.748Z,98831.47
2023-02-27T21:03:06.646Z,98828.06
2023-02-27T21:05:46.490Z,98833.56
2023-02-27T21:08:18.944Z,98821.94
2023-02-27T21:10:51.622Z,98827.13
2023-02-27T21:13:23.907Z,98823.75
2023-02-27T21:16:00.530Z,98817.31
2023-02-27T21:18:32.557Z,98825.09
2023-02-27T21:21:10.749Z,98819.97
2023-02-27T21:23:44.211Z,98830.28
2023-02-27T21:26:26.984Z,98817.63
2023-02-27T21:29:04.237Z,98821.19
2023-02-27T21:31:37.859Z,98813.19
2023-02-27T21:34:15.550Z,98815.06
2023-02-27T21:36:50.512Z,98817.66
2023-02-27T21:39:26.943Z,98821.19
2023-02-27T21:42:02.229Z,98818.25
2023-02-27T21:44:34.892Z,98819.50
2023-02-27T21:47:10.014Z,98815.03
2023-02-27T21:49:42.710Z,98810.41
2023-02-27T21:52:15.009Z,98808.59
2023-02-27T21:54:47.582Z,98811.53
2023-02-27T21:57:21.480Z,98814.88
2023-02-27T21:59:54.031Z,98807.97
2023-02-27T22:02:26.476Z,98804.13
2023-02-27T22:04:59.369Z,98815.66
2023-02-27T22:07:31.412Z,98811.38
2023-02-27T22:10:04.252Z,98810.81
2023-02-27T22:12:36.180Z,98818.25
2023-02-27T22:15:09.786Z,98813.88
2023-02-27T22:17:41.893Z,98804.44
2023-02-27T22:20:14.535Z,98800.03
2023-02-27T22:22:47.267Z,98811.69
2023-02-27T22:25:19.870Z,98809.56
2023-02-27T22:27:51.822Z,98804.44
2023-02-27T22:30:24.430Z,98809.81
2023-02-27T22:32:56.791Z,98810.41
2023-02-27T22:35:29.662Z,98806.69
2023-02-27T22:38:01.643Z,98812.53
2023-02-27T22:40:36.443Z,98801.56
2023-02-27T22:43:11.125Z,98810.16
2023-02-27T22:45:47.848Z,98805.16
2023-02-27T22:48:19.715Z,98812.06
2023-02-27T22:51:14.747Z,98806.97
2023-02-27T22:53:47.270Z,98813.06
2023-02-27T22:56:19.327Z,98810.25
2023-02-27T22:58:52.620Z,98803.59
2023-02-27T23:01:31.041Z,98804.22
2023-02-27T23:04:07.702Z,98802.28
2023-02-27T23:06:40.842Z,98809.31
2023-02-27T23:09:19.503Z,98807.16
2023-02-27T23:11:51.946Z,98804.84
2023-02-27T23:14:24.590Z,98802.34
2023-02-27T23:16:56.595Z,98815.81
2023-02-27T23:19:29.205Z,98806.53
2023-02-27T23:22:01.118Z,98809.16
2023-02-27T23:24:33.682Z,98811.34
2023-02-27T23:27:19.605Z,98804.81
2023-02-27T23:29:58.170Z,98808.66
2023-02-27T23:32:30.096Z,98803.25
2023-02-27T23:35:02.899Z,98810.66
2023-02-27T23:37:35.240Z,98813.69
2023-02-27T23:40:08.532Z,98803.97
2023-02-27T23:42:40.894Z,98806.78
2023-02-27T23:45:26.235Z,98799.91
2023-02-27T23:48:00.965Z,98809.03
2023-02-27T23:50:41.654Z,98803.84
2023-02-27T23:53:14.801Z,98807.34
2023-02-27T23:55:47.116Z,98804.44
2023-02-27T23:58:20.034Z,98801.81
